Burton, Texas
Current Conditions -  °F | °C
As of 10:15 AM on Wednesday 26 Nov 2014 (Local Time) from K11R Reporting Station
Clear Clear  
Wind Chill: 62°   Ceiling: Unl
Heat Index: 62°   Visibility: 10mi
Dew Point: 34°   Wind: 13mph
Humidity: 35%   Direction: 240°WSW
Pressure: 30.24"   Gusts: 21mph
Location:  30.18°N, 96.6°W
Report Text: K11R 261615Z AUTO 24011G18KT 10SM CLR 17/01 A3024 RMK AO2 T01690011
Loading
Personal Weather Stations






























Interactive Weather Map New forecast layout! Learn more

10-Day Weather Forecast

Advertisements
Track Severe Weather on mobile